createdAt,value
2018-08-17T00:04:36.000Z,41.367
2018-08-17T00:14:36.000Z,41.46
2018-08-17T00:24:36.000Z,41.501
2018-08-17T00:34:36.000Z,41.553
2018-08-17T00:44:36.000Z,41.606
2018-08-17T00:54:36.000Z,41.603
2018-08-17T01:04:36.000Z,41.589
2018-08-17T01:14:37.000Z,41.651
2018-08-17T01:24:37.000Z,41.616
2018-08-17T01:34:37.000Z,41.625
2018-08-17T01:44:37.000Z,41.634
2018-08-17T01:54:37.000Z,41.641
2018-08-17T02:04:37.000Z,41.673
2018-08-17T02:14:37.000Z,41.714
2018-08-17T02:24:37.000Z,41.735
2018-08-17T02:34:37.000Z,41.776
2018-08-17T02:44:37.000Z,41.817
2018-08-17T02:54:37.000Z,41.858
2018-08-17T03:04:37.000Z,41.943
2018-08-17T03:14:37.000Z,41.983
2018-08-17T03:24:37.000Z,42.025
2018-08-17T03:34:37.000Z,42.054
2018-08-17T03:44:37.000Z,42.084
2018-08-17T03:54:37.000Z,42.105
2018-08-17T04:04:37.000Z,42.158
2018-08-17T04:14:37.000Z,42.209
2018-08-17T04:24:37.000Z,42.154
2018-08-17T04:34:37.000Z,42.23
2018-08-17T04:44:37.000Z,42.336
2018-08-17T04:54:37.000Z,42.325
2018-08-17T05:04:37.000Z,42.4
2018-08-17T05:14:37.000Z,42.387
2018-08-17T05:24:37.000Z,42.354
2018-08-17T05:34:37.000Z,42.44
2018-08-17T05:44:37.000Z,43.211
2018-08-17T05:54:37.000Z,43.574
2018-08-17T06:04:37.000Z,43.984
2018-08-17T06:14:37.000Z,44.491
2018-08-17T06:24:37.000Z,44.98
2018-08-17T06:34:37.000Z,45.166
2018-08-17T06:44:37.000Z,45.284
2018-08-17T06:54:37.000Z,45.213
2018-08-17T07:04:37.000Z,45.288
2018-08-17T07:14:37.000Z,45.263
2018-08-17T07:24:37.000Z,45.23
2018-08-17T07:34:37.000Z,45.38
2018-08-17T07:44:37.000Z,45.422
2018-08-17T07:54:37.000Z,45.497
2018-08-17T08:04:37.000Z,45.506
2018-08-17T08:14:37.000Z,45.667
2018-08-17T08:24:37.000Z,45.734
2018-08-17T08:34:37.000Z,45.755
2018-08-17T08:44:37.000Z,45.78
2018-08-17T08:54:37.000Z,45.513
2018-08-17T09:04:37.000Z,45.115
2018-08-17T09:14:38.000Z,45.484
2018-08-17T09:24:38.000Z,46.17
2018-08-17T09:34:38.000Z,46.074
2018-08-17T09:44:38.000Z,46.337
2018-08-17T09:54:38.000Z,46.328
2018-08-17T10:04:38.000Z,46.111
2018-08-17T10:14:38.000Z,46.351
2018-08-17T10:24:38.000Z,46.415
2018-08-17T10:34:38.000Z,46.295
2018-08-17T10:44:38.000Z,46.126
2018-08-17T10:54:41.000Z,45.981
2018-08-17T11:04:38.000Z,46.047
2018-08-17T11:14:38.000Z,45.938
2018-08-17T11:24:42.000Z,46.174
2018-08-17T11:34:38.000Z,46.079
2018-08-17T11:44:38.000Z,46.166
2018-08-17T11:54:38.000Z,45.76
2018-08-17T12:04:38.000Z,45.946
2018-08-17T12:14:38.000Z,46.264
2018-08-17T12:24:38.000Z,46.347
2018-08-17T12:34:42.000Z,46.403
2018-08-17T12:44:38.000Z,46.48
2018-08-17T12:54:38.000Z,46.337
2018-08-17T13:04:38.000Z,45.592
2018-08-17T13:14:38.000Z,45.363
2018-08-17T13:24:38.000Z,45.282
2018-08-17T13:34:38.000Z,45.311
2018-08-17T13:44:38.000Z,45.149
2018-08-17T13:54:38.000Z,45.459
2018-08-17T14:04:38.000Z,46.054
2018-08-17T14:14:38.000Z,45.878
2018-08-17T14:24:38.000Z,45.961
2018-08-17T14:34:38.000Z,46.438
2018-08-17T14:44:38.000Z,46.192
2018-08-17T14:54:38.000Z,47.348
2018-08-17T15:04:38.000Z,45.75
2018-08-17T15:14:38.000Z,45.11
2018-08-17T15:24:38.000Z,45.217
2018-08-17T15:34:38.000Z,44.6
2018-08-17T15:44:38.000Z,44.361
2018-08-17T15:54:38.000Z,44.273
2018-08-17T16:04:38.000Z,44.107
2018-08-17T16:14:38.000Z,44.249
2018-08-17T16:24:38.000Z,44.39
2018-08-17T16:34:38.000Z,44.534
2018-08-17T16:44:38.000Z,44.96
2018-08-17T16:54:38.000Z,45.083
2018-08-17T17:04:38.000Z,44.995
2018-08-17T17:14:38.000Z,44.821
2018-08-17T17:24:38.000Z,44.797
2018-08-17T17:44:39.000Z,44.935
2018-08-17T17:54:39.000Z,44.147
2018-08-17T18:04:39.000Z,43.702
2018-08-17T18:14:39.000Z,43.213
2018-08-17T18:24:39.000Z,43.353
2018-08-17T18:34:39.000Z,43.393
2018-08-17T18:44:39.000Z,43.424
2018-08-17T18:54:39.000Z,43.499
2018-08-17T19:04:39.000Z,43.327
2018-08-17T19:14:39.000Z,42.922
2018-08-17T19:24:39.000Z,43.14
2018-08-17T19:34:39.000Z,43.495
2018-08-17T19:44:39.000Z,43.584
2018-08-17T19:54:39.000Z,43.499
2018-08-17T20:04:39.000Z,43.532
2018-08-17T20:14:39.000Z,43.597
2018-08-17T20:24:39.000Z,43.713
2018-08-17T20:34:39.000Z,44.096
2018-08-17T20:44:39.000Z,44.081
2018-08-17T20:54:39.000Z,44.076
2018-08-17T21:04:39.000Z,44.127
2018-08-17T21:14:39.000Z,44.09
2018-08-17T21:24:39.000Z,44.154
2018-08-17T21:34:39.000Z,44.214
2018-08-17T21:44:39.000Z,44.233
2018-08-17T21:54:39.000Z,44.229
2018-08-17T22:04:41.000Z,44.269
2018-08-17T22:14:40.000Z,44.244
2018-08-17T22:24:39.000Z,44.217
2018-08-17T22:34:39.000Z,44.192
2018-08-17T22:44:39.000Z,44.157
2018-08-17T22:54:39.000Z,44.163
2018-08-17T23:04:39.000Z,44.181
2018-08-17T23:14:39.000Z,44.156
2018-08-17T23:24:39.000Z,44.131
2018-08-17T23:34:39.000Z,44.106
2018-08-17T23:44:39.000Z,44.071
2018-08-17T23:54:39.000Z,44.099
